createdAt,value
2022-08-08T00:02:29.813Z,14.80
2022-08-08T00:04:53.111Z,14.80
2022-08-08T00:07:36.753Z,14.80
2022-08-08T00:10:17.359Z,14.80
2022-08-08T00:13:01.589Z,14.80
2022-08-08T00:15:56.895Z,14.70
2022-08-08T00:18:44.028Z,14.70
2022-08-08T00:21:19.560Z,14.70
2022-08-08T00:24:06.864Z,14.70
2022-08-08T00:26:43.398Z,14.70
2022-08-08T00:29:44.869Z,14.70
2022-08-08T00:32:35.080Z,14.60
2022-08-08T00:35:34.354Z,14.60
2022-08-08T00:38:51.829Z,14.60
2022-08-08T00:41:55.358Z,14.60
2022-08-08T00:44:41.856Z,14.60
2022-08-08T00:47:36.807Z,14.60
2022-08-08T00:50:40.966Z,14.60
2022-08-08T00:54:04.378Z,14.60
2022-08-08T00:57:09.510Z,14.60
2022-08-08T01:00:12.004Z,14.60
2022-08-08T01:03:57.502Z,14.50
2022-08-08T01:06:27.393Z,14.50
2022-08-08T01:09:35.084Z,14.50
2022-08-08T01:12:36.692Z,14.40
2022-08-08T01:15:43.362Z,14.40
2022-08-08T01:18:52.673Z,14.30
2022-08-08T01:22:12.552Z,14.30
2022-08-08T01:25:16.807Z,14.30
2022-08-08T01:28:04.125Z,14.30
2022-08-08T01:30:35.293Z,14.20
2022-08-08T01:33:24.077Z,14.20
2022-08-08T01:36:20.109Z,14.20
2022-08-08T01:39:29.041Z,14.20
2022-08-08T01:42:35.754Z,14.20
2022-08-08T01:45:27.600Z,14.10
2022-08-08T01:48:30.987Z,14.10
2022-08-08T01:51:30.608Z,14.00
2022-08-08T01:55:46.044Z,14.00
2022-08-08T01:58:10.790Z,14.10
2022-08-08T02:00:48.544Z,14.10
2022-08-08T02:04:07.361Z,14.10
2022-08-08T02:06:54.521Z,14.10
2022-08-08T02:10:02.862Z,14.10
2022-08-08T02:13:00.558Z,14.20
2022-08-08T02:15:43.519Z,14.20
2022-08-08T02:18:32.684Z,14.30
2022-08-08T02:21:42.875Z,14.30
2022-08-08T02:24:20.057Z,14.40
2022-08-08T02:27:00.832Z,14.40
2022-08-08T02:29:51.605Z,14.50
2022-08-08T02:32:42.227Z,14.50
2022-08-08T02:36:04.306Z,14.60
2022-08-08T02:38:35.444Z,14.60
2022-08-08T02:41:58.676Z,14.60
2022-08-08T02:44:56.923Z,14.60
2022-08-08T02:48:12.876Z,14.60
2022-08-08T02:51:01.092Z,14.70
2022-08-08T02:53:47.344Z,14.70
2022-08-08T02:56:30.074Z,14.70
2022-08-08T02:59:58.317Z,14.70
2022-08-08T03:03:00.380Z,14.70
2022-08-08T03:06:04.787Z,14.70
2022-08-08T03:09:13.989Z,14.70
2022-08-08T03:12:14.074Z,14.60
2022-08-08T03:16:01.310Z,14.60
2022-08-08T03:18:09.444Z,14.60
2022-08-08T03:20:51.940Z,14.60
2022-08-08T03:23:39.775Z,14.70
2022-08-08T03:26:25.087Z,14.70
2022-08-08T03:29:03.436Z,14.70
2022-08-08T03:32:06.377Z,14.80
2022-08-08T03:34:37.777Z,14.80
2022-08-08T03:37:59.889Z,14.90
2022-08-08T03:40:06.291Z,14.90
2022-08-08T03:42:39.264Z,15.00
2022-08-08T03:46:05.788Z,15.20
2022-08-08T03:48:09.756Z,15.30
2022-08-08T03:50:50.175Z,15.40
2022-08-08T03:53:24.011Z,15.60
2022-08-08T03:56:11.249Z,15.70
2022-08-08T03:58:58.739Z,15.90
2022-08-08T04:02:13.347Z,16.10
2022-08-08T04:04:31.057Z,16.20
2022-08-08T04:07:00.945Z,16.30
2022-08-08T04:10:00.584Z,16.40
2022-08-08T04:12:20.854Z,16.60
2022-08-08T04:14:51.037Z,16.80
2022-08-08T04:17:45.873Z,16.90
2022-08-08T04:20:09.568Z,17.10
2022-08-08T04:22:38.086Z,17.30
2022-08-08T04:25:07.887Z,17.50
2022-08-08T04:28:02.759Z,17.60
2022-08-08T04:30:25.789Z,17.70
2022-08-08T04:32:54.653Z,17.90
2022-08-08T04:35:26.368Z,18.00
2022-08-08T04:37:57.222Z,18.10
2022-08-08T04:40:34.678Z,18.20
2022-08-08T04:43:03.632Z,18.40
2022-08-08T04:45:37.289Z,18.50
2022-08-08T04:48:06.114Z,18.50
2022-08-08T04:50:38.952Z,18.70
2022-08-08T04:53:52.049Z,18.70
2022-08-08T04:56:10.614Z,18.70
2022-08-08T04:58:38.137Z,18.80
2022-08-08T05:01:10.819Z,18.90
2022-08-08T05:04:09.153Z,18.90
2022-08-08T05:06:35.177Z,19.20
2022-08-08T05:09:06.174Z,19.30
2022-08-08T05:11:38.896Z,19.50
2022-08-08T05:14:12.276Z,19.80
2022-08-08T05:16:54.999Z,20.10
2022-08-08T05:20:04.321Z,20.30
2022-08-08T05:22:20.491Z,20.70
2022-08-08T05:24:50.114Z,21.10
2022-08-08T05:27:21.784Z,21.50
2022-08-08T05:29:52.222Z,22.20
2022-08-08T05:32:24.813Z,22.90
2022-08-08T05:35:04.447Z,24.60
2022-08-08T05:37:49.178Z,25.40
2022-08-08T05:40:27.951Z,25.20
2022-08-08T05:43:38.329Z,24.80
2022-08-08T05:46:03.523Z,24.80
2022-08-08T05:48:37.577Z,27.30
2022-08-08T05:51:13.393Z,28.90
2022-08-08T05:54:25.241Z,32.00
2022-08-08T05:56:42.071Z,33.40
2022-08-08T05:59:53.800Z,34.50
2022-08-08T06:02:43.237Z,36.30
2022-08-08T06:05:34.254Z,38.10
2022-08-08T06:08:10.214Z,39.70
2022-08-08T06:11:00.256Z,40.50
2022-08-08T06:13:36.292Z,40.50
2022-08-08T06:16:27.319Z,39.50
2022-08-08T06:19:16.567Z,40.20
2022-08-08T06:21:56.699Z,41.10
2022-08-08T06:24:47.184Z,41.80
2022-08-08T06:27:30.277Z,42.30
2022-08-08T06:30:11.814Z,42.70
2022-08-08T06:32:52.594Z,43.40
2022-08-08T06:36:08.914Z,43.60
2022-08-08T06:38:14.370Z,43.60
2022-08-08T06:40:53.782Z,43.90
2022-08-08T06:43:28.537Z,44.30
2022-08-08T06:46:04.994Z,44.20
2022-08-08T06:48:38.237Z,44.20
2022-08-08T06:51:07.647Z,44.40
2022-08-08T06:53:39.746Z,44.30
2022-08-08T06:56:23.344Z,44.10
2022-08-08T06:58:51.351Z,43.90
2022-08-08T07:02:16.602Z,44.00
2022-08-08T07:04:37.225Z,43.90
2022-08-08T07:07:12.457Z,43.30
2022-08-08T07:09:59.378Z,42.90
2022-08-08T07:12:40.094Z,42.60
2022-08-08T07:15:23.150Z,42.40
2022-08-08T07:18:36.477Z,42.10
2022-08-08T07:21:04.587Z,41.80
2022-08-08T07:24:02.227Z,40.70
2022-08-08T07:26:32.920Z,39.70
2022-08-08T07:29:11.666Z,37.50
2022-08-08T07:31:49.864Z,35.40
2022-08-08T07:34:27.004Z,34.00
2022-08-08T07:37:11.761Z,32.90
2022-08-08T07:39:45.722Z,32.00
2022-08-08T07:42:25.951Z,31.40
2022-08-08T07:45:02.609Z,30.90
2022-08-08T07:47:39.322Z,30.40
2022-08-08T07:50:10.008Z,29.90
2022-08-08T07:52:43.960Z,29.60
2022-08-08T07:55:22.128Z,29.50
2022-08-08T07:57:56.240Z,29.50
2022-08-08T08:00:30.143Z,29.40
2022-08-08T08:03:20.424Z,29.40
2022-08-08T08:05:54.323Z,29.60
2022-08-08T08:08:35.608Z,29.80
2022-08-08T08:11:04.335Z,29.90
2022-08-08T08:14:06.417Z,29.60
2022-08-08T08:16:32.117Z,29.80
2022-08-08T08:19:07.141Z,30.20
2022-08-08T08:21:57.750Z,30.50
2022-08-08T08:24:43.040Z,30.90
2022-08-08T08:27:14.069Z,31.50
2022-08-08T08:29:44.554Z,31.90
2022-08-08T08:32:31.900Z,31.90
2022-08-08T08:35:09.361Z,32.10
2022-08-08T08:37:59.273Z,31.80
2022-08-08T08:40:32.397Z,31.80
2022-08-08T08:43:07.867Z,31.60
2022-08-08T08:45:40.530Z,31.40
2022-08-08T08:48:19.625Z,31.40
2022-08-08T08:50:52.266Z,31.40
2022-08-08T08:53:28.387Z,31.20
2022-08-08T08:56:15.105Z,31.00
2022-08-08T08:58:52.687Z,30.50
2022-08-08T09:01:31.071Z,30.50
2022-08-08T09:04:31.018Z,30.30
2022-08-08T09:06:59.542Z,30.30
2022-08-08T09:09:39.868Z,30.00
2022-08-08T09:12:25.861Z,29.90
2022-08-08T09:14:57.791Z,29.50
2022-08-08T09:17:40.736Z,29.00
2022-08-08T09:21:58.131Z,28.80
2022-08-08T09:23:03.615Z,28.60
2022-08-08T09:25:35.969Z,28.60
2022-08-08T09:28:37.183Z,28.10
2022-08-08T09:31:15.630Z,28.00
2022-08-08T09:34:15.851Z,28.00
2022-08-08T09:36:51.729Z,28.10
2022-08-08T09:39:35.614Z,28.20
2022-08-08T09:42:20.884Z,28.50
2022-08-08T09:45:15.376Z,28.60
2022-08-08T09:48:05.160Z,28.50
2022-08-08T09:50:32.549Z,28.30
2022-08-08T09:53:23.600Z,28.10
2022-08-08T09:56:05.042Z,27.90
2022-08-08T09:58:44.963Z,27.70
2022-08-08T10:01:59.815Z,27.50
2022-08-08T10:04:14.703Z,27.30
2022-08-08T10:07:07.379Z,27.40
2022-08-08T10:09:35.975Z,27.30
2022-08-08T10:12:38.668Z,27.20
2022-08-08T10:15:20.287Z,27.20
2022-08-08T10:18:05.361Z,27.20
2022-08-08T10:20:51.347Z,27.10
2022-08-08T10:23:58.114Z,27.20
2022-08-08T10:26:59.430Z,27.40
2022-08-08T10:29:59.067Z,27.50
2022-08-08T10:32:33.979Z,27.70
2022-08-08T10:36:08.836Z,27.70
2022-08-08T10:38:08.003Z,27.60
2022-08-08T10:40:38.397Z,27.50
2022-08-08T10:43:09.663Z,27.40
2022-08-08T10:45:55.920Z,27.10
2022-08-08T10:48:58.625Z,27.10
2022-08-08T10:51:30.764Z,26.70
2022-08-08T10:54:01.991Z,26.50
2022-08-08T10:56:35.962Z,26.30
2022-08-08T10:59:09.209Z,26.10
2022-08-08T11:01:39.363Z,26.00
2022-08-08T11:04:10.797Z,25.90
2022-08-08T11:06:41.851Z,25.80
2022-08-08T11:09:19.805Z,25.80
2022-08-08T11:12:05.132Z,25.70
2022-08-08T11:14:56.988Z,25.60
2022-08-08T11:17:58.194Z,25.60
2022-08-08T11:20:35.035Z,25.40
2022-08-08T11:23:05.757Z,25.20
2022-08-08T11:25:46.214Z,25.20
2022-08-08T11:28:29.385Z,25.10
2022-08-08T11:31:04.562Z,25.10
2022-08-08T11:33:51.096Z,25.30
2022-08-08T11:36:22.459Z,25.10
2022-08-08T11:38:55.597Z,25.20
2022-08-08T11:41:27.903Z,25.30
2022-08-08T11:44:01.661Z,25.40
2022-08-08T11:46:32.549Z,25.40
2022-08-08T11:49:04.302Z,25.40
2022-08-08T11:51:40.205Z,25.20
2022-08-08T11:54:27.417Z,25.30
2022-08-08T11:57:14.317Z,25.60
2022-08-08T12:00:05.812Z,25.60
2022-08-08T12:02:51.038Z,25.80
2022-08-08T12:05:22.770Z,25.80
2022-08-08T12:07:56.155Z,25.80
2022-08-08T12:10:33.448Z,25.70
2022-08-08T12:13:10.081Z,26.00
2022-08-08T12:15:48.286Z,26.00
2022-08-08T12:18:20.940Z,26.10
2022-08-08T12:20:54.743Z,26.10
2022-08-08T12:23:32.287Z,26.10
2022-08-08T12:26:16.941Z,26.30
2022-08-08T12:28:58.518Z,26.50
2022-08-08T12:31:39.486Z,26.60
2022-08-08T12:34:40.924Z,26.90
2022-08-08T12:37:19.614Z,26.70
2022-08-08T12:40:00.602Z,26.40
2022-08-08T12:42:33.601Z,26.20
2022-08-08T12:45:59.644Z,26.00
2022-08-08T12:48:09.573Z,25.90
2022-08-08T12:50:49.446Z,25.90
2022-08-08T12:53:30.295Z,26.00
2022-08-08T12:56:18.743Z,25.90
2022-08-08T12:58:54.525Z,26.00
2022-08-08T13:01:36.807Z,26.10
2022-08-08T13:04:24.536Z,26.30
2022-08-08T13:07:06.334Z,26.50
2022-08-08T13:09:43.238Z,26.80
2022-08-08T13:12:29.156Z,27.10
2022-08-08T13:14:58.033Z,27.40
2022-08-08T13:17:54.337Z,27.50
2022-08-08T13:20:17.406Z,27.50
2022-08-08T13:22:46.592Z,27.60
2022-08-08T13:25:18.205Z,27.60
2022-08-08T13:27:54.566Z,27.50
2022-08-08T13:30:28.105Z,27.50
2022-08-08T13:32:58.121Z,27.60
2022-08-08T13:35:39.072Z,27.50
2022-08-08T13:38:12.878Z,27.50
2022-08-08T13:40:44.845Z,27.40
2022-08-08T13:43:15.860Z,27.30
2022-08-08T13:45:47.132Z,27.40
2022-08-08T13:48:19.600Z,27.10
2022-08-08T13:50:52.509Z,27.10
2022-08-08T13:53:36.525Z,27.10
2022-08-08T13:56:10.999Z,27.20
2022-08-08T13:58:57.929Z,27.10
2022-08-08T14:01:33.101Z,27.00
2022-08-08T14:04:26.072Z,26.90
2022-08-08T14:07:04.109Z,27.00
2022-08-08T14:10:04.551Z,27.00
2022-08-08T14:12:33.303Z,26.70
2022-08-08T14:15:03.065Z,26.50
2022-08-08T14:17:58.295Z,26.40
2022-08-08T14:20:55.893Z,26.30
2022-08-08T14:23:21.165Z,26.40
2022-08-08T14:26:10.331Z,26.40
2022-08-08T14:28:39.984Z,26.30
2022-08-08T14:31:09.863Z,26.30
2022-08-08T14:33:37.273Z,26.20
2022-08-08T14:36:06.761Z,26.20
2022-08-08T14:38:52.590Z,26.10
2022-08-08T14:41:53.380Z,26.00
2022-08-08T14:44:21.096Z,26.00
2022-08-08T14:47:00.167Z,26.00
2022-08-08T14:49:37.876Z,26.00
2022-08-08T14:52:22.885Z,26.00
2022-08-08T14:54:50.738Z,26.10
2022-08-08T14:57:17.800Z,25.90
2022-08-08T14:59:51.376Z,25.80
2022-08-08T15:02:25.699Z,25.70
2022-08-08T15:05:08.135Z,25.70
2022-08-08T15:07:40.516Z,25.70
2022-08-08T15:10:11.568Z,25.80
2022-08-08T15:12:41.227Z,25.70
2022-08-08T15:15:10.123Z,25.70
2022-08-08T15:17:40.060Z,25.60
2022-08-08T15:20:14.280Z,25.40
2022-08-08T15:22:44.419Z,25.40
2022-08-08T15:25:17.226Z,25.20
2022-08-08T15:28:03.813Z,25.20
2022-08-08T15:30:32.957Z,25.20
2022-08-08T15:33:00.025Z,25.20
2022-08-08T15:35:27.386Z,25.20
2022-08-08T15:37:57.315Z,25.10
2022-08-08T15:40:28.296Z,25.00
2022-08-08T15:42:57.665Z,25.00
2022-08-08T15:45:29.959Z,24.80
2022-08-08T15:48:05.356Z,24.70
2022-08-08T15:51:03.014Z,24.60
2022-08-08T15:53:49.071Z,24.50
2022-08-08T15:56:20.030Z,24.40
2022-08-08T15:58:49.232Z,24.30
2022-08-08T16:01:18.047Z,24.20
2022-08-08T16:03:48.000Z,24.20
2022-08-08T16:06:28.232Z,24.20
2022-08-08T16:13:00.702Z,24.20
2022-08-08T16:13:14.781Z,24.20
2022-08-08T16:14:33.879Z,24.00
2022-08-08T16:17:02.060Z,23.90
2022-08-08T16:20:00.263Z,24.20
2022-08-08T16:22:30.409Z,23.70
2022-08-08T16:24:58.875Z,23.70
2022-08-08T16:27:33.528Z,23.60
2022-08-08T16:30:13.386Z,23.60
2022-08-08T16:32:42.089Z,23.60
2022-08-08T16:35:09.785Z,23.50
2022-08-08T16:37:40.427Z,23.50
2022-08-08T16:40:12.497Z,23.70
2022-08-08T16:42:40.522Z,23.40
2022-08-08T16:45:11.421Z,23.40
2022-08-08T16:47:55.368Z,23.30
2022-08-08T16:50:23.806Z,23.30
2022-08-08T16:55:03.232Z,23.20
2022-08-08T16:55:55.972Z,23.10
2022-08-08T16:58:29.439Z,23.10
2022-08-08T17:01:06.403Z,23.00
2022-08-08T17:04:00.699Z,23.00
2022-08-08T17:06:36.441Z,23.00
2022-08-08T17:09:15.423Z,23.00
2022-08-08T17:11:49.273Z,22.80
2022-08-08T17:14:27.061Z,22.80
2022-08-08T17:16:58.489Z,22.70
2022-08-08T17:19:30.080Z,22.70
2022-08-08T17:22:01.488Z,22.60
2022-08-08T17:24:30.828Z,22.60
2022-08-08T17:27:02.797Z,22.50
2022-08-08T17:29:33.511Z,22.50
2022-08-08T17:32:03.278Z,22.40
2022-08-08T17:34:36.089Z,22.40
2022-08-08T17:37:19.092Z,22.30
2022-08-08T17:40:08.879Z,22.20
2022-08-08T17:42:33.909Z,22.20
2022-08-08T17:45:01.096Z,22.10
2022-08-08T17:47:37.289Z,22.00
2022-08-08T17:50:09.648Z,22.00
2022-08-08T17:52:38.386Z,21.90
2022-08-08T17:56:06.271Z,21.80
2022-08-08T17:57:58.922Z,21.80
2022-08-08T18:00:30.656Z,21.70
2022-08-08T18:03:09.104Z,21.60
2022-08-08T18:05:43.969Z,21.60
2022-08-08T18:08:25.239Z,21.50
2022-08-08T18:11:15.253Z,21.40
2022-08-08T18:13:47.077Z,21.40
2022-08-08T18:16:20.358Z,21.40
2022-08-08T18:18:52.731Z,21.30
2022-08-08T18:21:35.614Z,21.30
2022-08-08T18:24:13.861Z,21.20
2022-08-08T18:26:54.584Z,21.10
2022-08-08T18:29:35.294Z,21.10
2022-08-08T18:32:08.319Z,21.00
2022-08-08T18:34:37.695Z,21.00
2022-08-08T18:37:06.603Z,21.00
2022-08-08T18:39:42.156Z,20.90
2022-08-08T18:42:15.734Z,20.90
2022-08-08T18:44:55.030Z,20.90
2022-08-08T18:47:26.961Z,20.80
2022-08-08T18:49:58.240Z,20.70
2022-08-08T18:52:29.948Z,20.70
2022-08-08T18:55:00.883Z,20.70
2022-08-08T19:00:21.409Z,20.70
2022-08-08T19:02:55.774Z,20.60
2022-08-08T19:05:30.675Z,20.60
2022-08-08T19:08:24.733Z,20.50
2022-08-08T19:10:56.374Z,20.60
2022-08-08T19:13:25.122Z,20.50
2022-08-08T19:15:55.730Z,20.40
2022-08-08T19:18:31.796Z,20.30
2022-08-08T19:21:29.602Z,20.40
2022-08-08T19:23:53.525Z,20.40
2022-08-08T19:26:29.524Z,20.30
2022-08-08T19:28:59.940Z,20.30
2022-08-08T19:31:31.773Z,20.30
2022-08-08T19:34:30.156Z,20.40
2022-08-08T19:36:53.625Z,20.30
2022-08-08T19:39:23.271Z,20.20
2022-08-08T19:41:51.297Z,20.20
2022-08-08T19:44:26.762Z,20.20
2022-08-08T19:47:02.103Z,20.20
2022-08-08T19:49:37.679Z,20.20
2022-08-08T19:52:06.833Z,20.10
2022-08-08T19:54:34.259Z,20.10
2022-08-08T19:57:04.262Z,20.00
2022-08-08T19:59:35.893Z,20.00
2022-08-08T20:02:05.362Z,20.00
2022-08-08T20:04:33.630Z,20.00
2022-08-08T20:07:05.390Z,19.90
2022-08-08T20:09:55.433Z,19.90
2022-08-08T20:12:32.787Z,19.90
2022-08-08T20:15:16.842Z,19.90
2022-08-08T20:17:47.571Z,19.90
2022-08-08T20:20:19.694Z,19.90
2022-08-08T20:22:54.177Z,19.90
2022-08-08T20:25:26.372Z,19.70
2022-08-08T20:28:02.159Z,20.30
2022-08-08T20:30:52.823Z,19.80
2022-08-08T20:35:58.881Z,19.70
2022-08-08T20:38:33.941Z,19.70
2022-08-08T20:41:17.730Z,19.60
2022-08-08T20:43:48.258Z,19.70
2022-08-08T20:46:17.407Z,19.60
2022-08-08T20:48:47.778Z,19.60
2022-08-08T20:51:15.229Z,19.60
2022-08-08T20:53:59.204Z,19.60
2022-08-08T20:56:35.071Z,19.60
2022-08-08T20:59:08.991Z,19.50
2022-08-08T21:02:05.595Z,19.50
2022-08-08T21:04:27.626Z,19.50
2022-08-08T21:06:56.153Z,19.50
2022-08-08T21:09:23.847Z,19.40
2022-08-08T21:12:03.031Z,19.40
2022-08-08T21:14:34.710Z,19.40
2022-08-08T21:17:06.149Z,19.40
2022-08-08T21:19:46.065Z,19.30
2022-08-08T21:22:15.660Z,19.30
2022-08-08T21:24:52.705Z,19.30
2022-08-08T21:28:05.806Z,19.30
2022-08-08T21:30:19.315Z,19.30
2022-08-08T21:32:50.996Z,19.30
2022-08-08T21:36:19.009Z,19.20
2022-08-08T21:38:16.580Z,19.20
2022-08-08T21:40:55.560Z,19.20
2022-08-08T21:43:32.928Z,19.20
2022-08-08T21:48:13.085Z,19.60
2022-08-08T21:48:55.222Z,19.20
2022-08-08T21:54:30.765Z,19.20
2022-08-08T21:54:31.838Z,19.10
2022-08-08T21:57:01.107Z,19.10
2022-08-08T22:00:02.987Z,19.10
2022-08-08T22:02:19.544Z,19.40
2022-08-08T22:04:56.093Z,19.00
2022-08-08T22:07:39.862Z,19.00
2022-08-08T22:10:28.360Z,19.00
2022-08-08T22:13:18.457Z,19.00
2022-08-08T22:15:59.108Z,19.00
2022-08-08T22:18:29.858Z,19.00
2022-08-08T22:21:01.339Z,18.90
2022-08-08T22:23:35.934Z,18.90
2022-08-08T22:26:27.857Z,18.90
2022-08-08T22:29:14.024Z,18.90
2022-08-08T22:31:38.610Z,18.80
2022-08-08T22:34:12.313Z,18.80
2022-08-08T22:36:42.809Z,18.80
2022-08-08T22:39:10.266Z,18.80
2022-08-08T22:41:46.574Z,18.80
2022-08-08T22:44:16.688Z,18.80
2022-08-08T22:46:45.795Z,18.70
2022-08-08T22:49:19.840Z,18.70
2022-08-08T22:51:47.667Z,18.70
2022-08-08T22:54:32.153Z,18.70
2022-08-08T22:57:11.560Z,18.70
2022-08-08T22:59:58.793Z,18.70
2022-08-08T23:02:29.027Z,18.60
2022-08-08T23:04:56.580Z,18.60
2022-08-08T23:07:51.293Z,18.60
2022-08-08T23:10:19.783Z,18.50
2022-08-08T23:12:51.576Z,18.50
2022-08-08T23:16:39.062Z,18.50
2022-08-08T23:18:11.923Z,18.50
2022-08-08T23:20:43.866Z,18.40
2022-08-08T23:23:12.501Z,18.40
2022-08-08T23:25:47.970Z,18.40
2022-08-08T23:28:18.742Z,18.30
2022-08-08T23:30:47.173Z,18.30
2022-08-08T23:33:19.058Z,18.30
2022-08-08T23:36:06.765Z,18.40
2022-08-08T23:38:36.865Z,18.30
2022-08-08T23:41:23.025Z,18.30
2022-08-08T23:43:56.342Z,18.30
2022-08-08T23:49:06.770Z,18.30
2022-08-08T23:49:15.294Z,18.30
2022-08-08T23:52:04.047Z,18.30
2022-08-08T23:54:42.753Z,18.30
2022-08-08T23:57:38.645Z,18.20
